Latest Coastal Weather Observations for Thursday Island

IDQ60701

Issued at 12:32 am EST Friday 3 February 2023 (issued every 10 minutes, with the page automatically refreshed every 10 minutes)

About coastal observations | Map of coastal stations | Coastal observations for QLD | Marine services | Other Formats
Station Details ID: 200892 Name: TORRES STRAIT NTC AWS Lat: -10.59 Lon: 142.22 Height: 3.0 m
Data from the previous 72 hours. | See also: Recent months for locations in Queensland
Date/Time
EST
Wind Sea
Height
m
Swell Vis
km
Cloud Weather Temp
°C
Press
MSL
hPa
Rain since
9am
mm
Dir  Spd
kts
Gust
kts
Height
m
Period
s
Dir
03/12:30am NW 5 8 - - - - - - - - 1004.9 -
03/12:00am W 6 9 - - - - - - - - 1005.4 -
 
Date/Time
EST
Wind Sea
Height
m
Swell Vis
km
Cloud Weather Temp
°C
Press
MSL
hPa
Rain since
9am
mm
Dir  Spd
kts
Gust
kts
Height
m
Period
s
Dir
02/11:30pm W 6 9 - - - - - - - - 1005.6 -
02/11:00pm W 6 8 - - - - - - - - 1005.7 -
02/10:30pm W 8 11 - - - - - - - - 1005.7 -
02/10:00pm W 11 15 - - - - - - - - 1005.6 -
02/09:30pm W 15 20 - - - - - - - - 1005.5 -
02/09:00pm W 13 22 - - - - - - - - 1005.3 -
02/08:30pm W 10 15 - - - - - - - - 1004.7 -
02/08:00pm W 12 15 - - - - - - - - 1004.1 -
02/07:30pm WNW 16 22 - - - - - - - - 1003.9 -
02/07:00pm WNW 15 23 - - - - - - - - 1003.7 -
02/06:30pm W 17 23 - - - - - - - - 1003.6 -
02/06:00pm W 18 26 - - - - - - - - 1003.2 -
02/05:30pm WNW 19 27 - - - - - - - - 1002.6 -
02/05:00pm WNW 19 27 - - - - - - - - 1002.5 -
02/04:30pm WNW 21 28 - - - - - - - - 1002.8 -
02/04:00pm WNW 20 27 - - - - - - - - 1002.8 -
02/03:30pm WNW 13 19 - - - - - - - - 1003.1 -
02/03:00pm WNW 16 21 - - - - - - - - 1003.6 -
02/02:30pm WNW 11 18 - - - - - - - - 1004.1 -
02/02:00pm WNW 13 19 - - - - - - - - 1004.4 -
02/01:30pm WNW 17 23 - - - - - - - - 1005.0 -
02/01:00pm W 7 16 - - - - - - - - 1005.8 -
02/12:30pm WSW 10 13 - - - - - - - - 1006.4 -
02/12:00pm NW 10 16 - - - - - - - - 1006.6 -
02/11:30am NNW 5 10 - - - - - - - - 1006.6 -
02/11:00am NNW 6 13 - - - - - - - - 1006.8 -
02/10:30am NNW 7 14 - - - - - - - - 1007.1 -
02/10:00am WNW 14 19 - - - - - - - - 1006.9 -
02/09:30am NNW 8 22 - - - - - - - - 1006.8 -
02/09:00am NNW 4 6 - - - - - - - - 1006.8 -
02/08:30am N 3 4 - - - - - - - - 1006.5 -
02/08:00am WSW 12 17 - - - - - - - - 1006.6 -
02/07:40am WNW 15 24 - - - - - - - - 1006.7 -
02/07:30am NNW 6 13 - - - - - - - - 1006.1 -
02/07:00am WNW 3 4 - - - - - - - - 1005.7 -
02/06:30am N 3 4 - - - - - - - - 1005.5 -
02/06:00am WNW 5 7 - - - - - - - - 1004.8 -
02/05:30am WNW 12 17 - - - - - - - - 1004.7 -
02/05:00am WNW 21 29 - - - - - - - - 1004.7 -
02/04:52am NW 10 25 - - - - - - - - 1004.5 -
02/04:30am NW 5 7 - - - - - - - - 1004.4 -
02/04:00am WNW 5 8 - - - - - - - - 1004.4 -
02/03:30am WNW 7 11 - - - - - - - - 1004.4 -
02/03:00am NW 6 9 - - - - - - - - 1004.7 -
02/02:30am WNW 6 10 - - - - - - - - 1005.0 -
02/02:00am WNW 8 13 - - - - - - - - 1004.9 -
02/01:30am W 7 11 - - - - - - - - 1005.2 -
02/01:00am WNW 6 11 - - - - - - - - 1005.5 -
02/12:30am WNW 6 10 - - - - - - - - 1006.0 -
02/12:00am NW 6 9 - - - - - - - - 1006.3 -
 
Date/Time
EST
Wind Sea
Height
m
Swell Vis
km
Cloud Weather Temp
°C
Press
MSL
hPa
Rain since
9am
mm
Dir  Spd
kts
Gust
kts
Height
m
Period
s
Dir
01/11:30pm W 7 9 - - - - - - - - 1006.3 -
01/11:00pm WNW 8 12 - - - - - - - - 1006.3 -
01/10:30pm W 8 11 - - - - - - - - 1006.5 -
01/10:00pm W 9 12 - - - - - - - - 1006.7 -
01/09:30pm W 8 11 - - - - - - - - 1006.6 -
01/09:00pm W 8 10 - - - - - - - - 1006.2 -
01/08:30pm WSW 8 10 - - - - - - - - 1005.8 -
01/08:00pm WSW 8 10 - - - - - - - - 1005.7 -
01/07:30pm WSW 7 9 - - - - - - - - 1005.4 -
01/07:00pm W 7 9 - - - - - - - - 1005.3 -
01/06:30pm WNW 8 12 - - - - - - - - 1004.9 -
01/06:00pm WSW 8 10 - - - - - - - - 1004.6 -
01/05:30pm W 12 15 - - - - - - - - 1004.4 -
01/05:11pm WNW 15 29 - - - - - - - - 1004.2 -
01/05:00pm WNW 12 16 - - - - - - - - 1004.2 -
01/04:30pm W 15 19 - - - - - - - - 1004.0 -
01/04:00pm WNW 14 17 - - - - - - - - 1003.9 -
01/03:30pm WNW 16 23 - - - - - - - - 1003.7 -
01/03:00pm WNW 9 14 - - - - - - - - 1004.2 -
01/02:30pm WNW 11 17 - - - - - - - - 1004.6 -
01/02:00pm WNW 15 19 - - - - - - - - 1005.2 -
01/01:30pm W 12 18 - - - - - - - - 1005.5 -
01/01:00pm WNW 10 17 - - - - - - - - 1006.0 -
01/12:30pm W 13 17 - - - - - - - - 1006.5 -
01/12:00pm WNW 12 16 - - - - - - - - 1006.7 -
01/11:30am WNW 12 15 - - - - - - - - 1007.0 -
01/11:00am WNW 11 15 - - - - - - - - 1007.3 -
01/10:30am WNW 11 15 - - - - - - - - 1007.3 -
01/10:00am WNW 11 14 - - - - - - - - 1007.5 -
01/09:30am WNW 9 13 - - - - - - - - 1007.6 -
01/09:00am WNW 11 13 - - - - - - - - 1007.4 -
01/08:30am WNW 11 14 - - - - - - - - 1007.0 -
01/08:00am WNW 10 14 - - - - - - - - 1006.8 -
01/07:30am WNW 8 13 - - - - - - - - 1006.3 -
01/07:00am WNW 8 13 - - - - - - - - 1005.9 -
01/06:30am NW 5 8 - - - - - - - - 1005.7 -
01/06:00am NW 6 10 - - - - - - - - 1005.5 -
01/05:30am WNW 5 8 - - - - - - - - 1005.3 -
01/05:00am WNW 6 10 - - - - - - - - 1005.0 -
01/04:30am NW 4 7 - - - - - - - - 1005.0 -
01/04:00am NW 4 6 - - - - - - - - 1004.9 -
01/03:30am W 5 9 - - - - - - - - 1005.3 -
01/03:00am NW 5 8 - - - - - - - - 1005.7 -
01/02:30am WNW 6 8 - - - - - - - - 1005.6 -
01/02:00am WNW 5 8 - - - - - - - - 1005.8 -
01/01:30am NW 4 7 - - - - - - - - 1006.0 -
01/01:00am NW 4 6 - - - - - - - - 1006.3 -
01/12:30am NW 4 6 - - - - - - - - 1006.7 -
01/12:00am NW 4 6 - - - - - - - - 1006.9 -
 
Date/Time
EST
Wind Sea
Height
m
Swell Vis
km
Cloud Weather Temp
°C
Press
MSL
hPa
Rain since
9am
mm
Dir  Spd
kts
Gust
kts
Height
m
Period
s
Dir
31/11:30pm NNW 3 5 - - - - - - - - 1007.0 -
31/11:00pm NW 3 5 - - - - - - - - 1007.2 -
31/10:30pm NW 3 5 - - - - - - - - 1007.3 -
31/10:00pm NW 1 1 - - - - - - - - 1007.2 -
31/09:30pm WNW 3 5 - - - - - - - - 1006.9 -
31/09:00pm W 6 7 - - - - - - - - 1006.7 -
31/08:30pm WSW 12 15 - - - - - - - - 1006.4 -
31/08:00pm WNW 13 20 - - - - - - - - 1006.3 -
31/07:30pm WNW 6 11 - - - - - - - - 1006.0 -
31/07:00pm NW 7 10 - - - - - - - - 1005.6 -
31/06:30pm NW 9 15 - - - - - - - - 1005.2 -
31/06:00pm NW 9 15 - - - - - - - - 1005.1 -
31/05:30pm NW 9 15 - - - - - - - - 1004.7 -
31/05:00pm WNW 11 14 - - - - - - - - 1004.6 -
31/04:30pm WNW 10 15 - - - - - - - - 1004.5 -
31/04:00pm WNW 10 15 - - - - - - - - 1004.3 -
31/03:30pm WNW 11 14 - - - - - - - - 1004.3 -
31/03:00pm WNW 10 13 - - - - - - - - 1004.9 -
31/02:30pm WNW 10 12 - - - - - - - - 1005.2 -
31/02:00pm WNW 8 12 - - - - - - - - 1005.5 -
31/01:30pm WNW 9 12 - - - - - - - - 1005.8 -
31/01:00pm W 9 12 - - - - - - - - 1006.1 -
31/12:30pm WNW 7 11 - - - - - - - - 1006.5 -
31/12:00pm NNW 6 9 - - - - - - - - 1007.1 -
31/11:30am NW 5 9 - - - - - - - - 1007.6 -
31/11:00am NNW 3 5 - - - - - - - - 1008.0 -
31/10:30am NW 4 7 - - - - - - - - 1008.3 -
31/10:00am NNW 3 5 - - - - - - - - 1008.4 -
31/09:30am SSW 2 4 - - - - - - - - 1008.4 -
31/09:00am SSE 1 2 - - - - - - - - 1008.3 -
31/08:30am SSE 1 2 - - - - - - - - 1008.0 -
31/08:00am E 1 1 - - - - - - - - 1007.7 -
31/07:30am NW 2 3 - - - - - - - - 1007.6 -
31/07:00am NNW 2 3 - - - - - - - - 1007.4 -
31/06:30am SW 1 3 - - - - - - - - 1006.7 -
31/06:00am W 1 2 - - - - - - - - 1006.3 -
31/05:30am WNW 3 4 - - - - - - - - 1006.1 -
31/05:00am WNW 1 1 - - - - - - - - 1005.8 -
31/04:30am SSW 3 4 - - - - - - - - 1005.6 -
31/04:00am SE 2 3 - - - - - - - - 1005.6 -
31/03:30am SSE 3 4 - - - - - - - - 1005.5 -
31/03:00am SSE 3 5 - - - - - - - - 1005.5 -
31/02:30am SSE 3 4 - - - - - - - - 1005.5 -
31/02:00am S 1 3 - - - - - - - - 1005.8 -
31/01:30am SE 2 3 - - - - - - - - 1006.3 -
31/01:00am SE 4 5 - - - - - - - - 1006.6 -

Other formats

Comma delimited format used in spreadsheet applications
http://www.bom.gov.au/fwo/IDQ60701/IDQ60701.94181.axf

JavaScript Object Notation format (JSON) in row-major order
http://www.bom.gov.au/fwo/IDQ60701/IDQ60701.94181.json

Data quality

Most of these data are generated automatically and are frequently updated. Quality checks on data are not normally performed. It is possible for incorrect values to appear. Refer to information at About Latest Weather Observations and please check the disclaimer before using these data.